KGVL/GVL METAR and TAF weather

Enter ICAO airport designator
Station Type Date Time Source
KGVL METAR 2018/12/17 02:53 UTC NOAA

KGVL 170253Z AUTO 28006KT 10SM CLR 07/06 A3013 RMK AO2 SLP202 T00720061 51017


Station Type Date Time Source
KGVL Decoded METAR 2018/12/17 02:53 UTC NOAA

GILMER MEMORIAL AIRPORT, GA, United States (KGVL) 34-16N 83-50W 386M
Dec 16, 2018 - 09:53 PM EST / 2018.12.17 0253 UTC
Wind: from the W (280 degrees) at 7 MPH (6 KT):0
Visibility: 10 mile(s):0
Sky conditions: clear
Temperature: 45.0 F (7.2 C)
Dew Point: 43.0 F (6.1 C)
Relative Humidity: 92%
Pressure (altimeter): 30.13 in. Hg (1020 hPa)
Pressure tendency: 0.05 inches (1.7 hPa) higher than three hours ago
ob: KGVL 170253Z AUTO 28006KT 10SM CLR 07/06 A3013 RMK AO2 SLP202 T00720061 51017
cycle: 3

Station Type Date Time Source
KGVL TAF UTC NOAA

Error!


Example: see airport list